sensor_id;sensor_type;location;lat;lon;timestamp;temperature;humidity
56729;DHT22;42612;52.232;7.560;2022-11-20T00:01:49;4.80;50.80
56729;DHT22;42612;52.232;7.560;2022-11-20T00:04:15;4.70;50.80
56729;DHT22;42612;52.232;7.560;2022-11-20T00:06:40;4.60;50.70
56729;DHT22;42612;52.232;7.560;2022-11-20T00:09:06;4.60;50.80
56729;DHT22;42612;52.232;7.560;2022-11-20T00:11:31;4.60;50.90
56729;DHT22;42612;52.232;7.560;2022-11-20T00:13:59;4.60;50.90
56729;DHT22;42612;52.232;7.560;2022-11-20T00:16:26;4.60;50.90
56729;DHT22;42612;52.232;7.560;2022-11-20T00:18:53;4.50;51.10
56729;DHT22;42612;52.232;7.560;2022-11-20T00:21:19;4.50;51.10
56729;DHT22;42612;52.232;7.560;2022-11-20T00:23:46;4.50;51.00
56729;DHT22;42612;52.232;7.560;2022-11-20T00:26:13;4.50;51.00
56729;DHT22;42612;52.232;7.560;2022-11-20T00:28:40;4.50;51.10
56729;DHT22;42612;52.232;7.560;2022-11-20T00:31:13;4.50;51.20
56729;DHT22;42612;52.232;7.560;2022-11-20T00:33:39;4.50;51.00
56729;DHT22;42612;52.232;7.560;2022-11-20T00:36:06;4.50;51.00
56729;DHT22;42612;52.232;7.560;2022-11-20T00:38:33;4.50;51.00
56729;DHT22;42612;52.232;7.560;2022-11-20T00:40:59;4.50;51.10
56729;DHT22;42612;52.232;7.560;2022-11-20T00:43:28;4.50;51.10
56729;DHT22;42612;52.232;7.560;2022-11-20T00:45:57;4.40;51.10
56729;DHT22;42612;52.232;7.560;2022-11-20T00:48:23;4.40;51.10
56729;DHT22;42612;52.232;7.560;2022-11-20T00:50:49;4.40;51.00
56729;DHT22;42612;52.232;7.560;2022-11-20T00:53:15;4.40;51.00
56729;DHT22;42612;52.232;7.560;2022-11-20T00:55:40;4.40;50.70
56729;DHT22;42612;52.232;7.560;2022-11-20T00:58:06;4.40;50.80
56729;DHT22;42612;52.232;7.560;2022-11-20T01:00:31;4.30;50.90
56729;DHT22;42612;52.232;7.560;2022-11-20T01:02:57;4.30;50.90
56729;DHT22;42612;52.232;7.560;2022-11-20T01:05:22;4.30;50.90
56729;DHT22;42612;52.232;7.560;2022-11-20T01:07:48;4.30;51.00
56729;DHT22;42612;52.232;7.560;2022-11-20T01:10:14;4.30;51.00
56729;DHT22;42612;52.232;7.560;2022-11-20T01:12:39;4.30;50.80
56729;DHT22;42612;52.232;7.560;2022-11-20T01:15:05;4.30;50.90
56729;DHT22;42612;52.232;7.560;2022-11-20T01:17:32;4.30;50.90
56729;DHT22;42612;52.232;7.560;2022-11-20T01:19:57;4.30;50.80
56729;DHT22;42612;52.232;7.560;2022-11-20T01:22:23;4.20;50.80
56729;DHT22;42612;52.232;7.560;2022-11-20T01:24:48;4.20;50.90
56729;DHT22;42612;52.232;7.560;2022-11-20T01:27:14;4.20;50.90
56729;DHT22;42612;52.232;7.560;2022-11-20T01:29:39;4.20;51.00
56729;DHT22;42612;52.232;7.560;2022-11-20T01:32:05;4.20;51.00
56729;DHT22;42612;52.232;7.560;2022-11-20T01:34:31;4.20;50.90
56729;DHT22;42612;52.232;7.560;2022-11-20T01:36:56;4.20;50.90
56729;DHT22;42612;52.232;7.560;2022-11-20T01:39:23;4.20;51.00
56729;DHT22;42612;52.232;7.560;2022-11-20T01:41:50;4.10;51.00
56729;DHT22;42612;52.232;7.560;2022-11-20T01:47:31;4.10;51.20
56729;DHT22;42612;52.232;7.560;2022-11-20T01:50:04;4.10;51.20
56729;DHT22;42612;52.232;7.560;2022-11-20T01:52:36;4.10;51.20
56729;DHT22;42612;52.232;7.560;2022-11-20T01:55:09;4.00;51.10
56729;DHT22;42612;52.232;7.560;2022-11-20T01:57:38;4.00;51.10
56729;DHT22;42612;52.232;7.560;2022-11-20T02:00:12;4.00;51.10
56729;DHT22;42612;52.232;7.560;2022-11-20T02:02:39;4.00;51.30
56729;DHT22;42612;52.232;7.560;2022-11-20T02:08:03;4.00;51.10
56729;DHT22;42612;52.232;7.560;2022-11-20T02:10:30;4.00;51.00
56729;DHT22;42612;52.232;7.560;2022-11-20T02:12:57;4.00;51.00
56729;DHT22;42612;52.232;7.560;2022-11-20T02:15:41;4.00;51.10
56729;DHT22;42612;52.232;7.560;2022-11-20T02:18:07;4.00;51.10
56729;DHT22;42612;52.232;7.560;2022-11-20T02:20:34;4.00;51.80
56729;DHT22;42612;52.232;7.560;2022-11-20T02:23:03;4.00;51.10
56729;DHT22;42612;52.232;7.560;2022-11-20T02:25:30;4.00;51.00
56729;DHT22;42612;52.232;7.560;2022-11-20T02:27:57;4.00;50.90
56729;DHT22;42612;52.232;7.560;2022-11-20T02:30:23;4.00;50.90
56729;DHT22;42612;52.232;7.560;2022-11-20T02:32:48;4.00;51.70
56729;DHT22;42612;52.232;7.560;2022-11-20T02:37:42;3.90;50.80
56729;DHT22;42612;52.232;7.560;2022-11-20T02:40:08;3.90;50.70
56729;DHT22;42612;52.232;7.560;2022-11-20T02:42:35;3.90;50.80
56729;DHT22;42612;52.232;7.560;2022-11-20T02:45:01;3.90;50.80
56729;DHT22;42612;52.232;7.560;2022-11-20T02:47:27;3.80;50.90
56729;DHT22;42612;52.232;7.560;2022-11-20T02:49:52;3.80;51.00
56729;DHT22;42612;52.232;7.560;2022-11-20T02:52:18;3.80;50.90
56729;DHT22;42612;52.232;7.560;2022-11-20T02:54:43;3.80;50.90
56729;DHT22;42612;52.232;7.560;2022-11-20T02:57:09;3.80;50.90
56729;DHT22;42612;52.232;7.560;2022-11-20T02:59:34;3.80;50.90
56729;DHT22;42612;52.232;7.560;2022-11-20T03:02:00;3.80;51.00
56729;DHT22;42612;52.232;7.560;2022-11-20T03:04:26;3.80;50.90
56729;DHT22;42612;52.232;7.560;2022-11-20T03:06:51;3.80;50.90
56729;DHT22;42612;52.232;7.560;2022-11-20T03:09:17;3.80;50.70
56729;DHT22;42612;52.232;7.560;2022-11-20T03:11:42;3.70;50.70
56729;DHT22;42612;52.232;7.560;2022-11-20T03:14:08;3.80;50.80
56729;DHT22;42612;52.232;7.560;2022-11-20T03:16:34;3.70;50.70
56729;DHT22;42612;52.232;7.560;2022-11-20T03:18:59;3.70;50.70
56729;DHT22;42612;52.232;7.560;2022-11-20T03:21:25;3.70;50.60
56729;DHT22;42612;52.232;7.560;2022-11-20T03:23:52;3.70;50.60
56729;DHT22;42612;52.232;7.560;2022-11-20T03:26:19;3.60;50.70
56729;DHT22;42612;52.232;7.560;2022-11-20T03:28:50;3.70;50.80
56729;DHT22;42612;52.232;7.560;2022-11-20T03:31:21;3.70;50.90
56729;DHT22;42612;52.232;7.560;2022-11-20T03:33:49;3.70;50.80
56729;DHT22;42612;52.232;7.560;2022-11-20T03:36:16;3.60;50.80
56729;DHT22;42612;52.232;7.560;2022-11-20T03:38:43;3.60;50.90
56729;DHT22;42612;52.232;7.560;2022-11-20T03:41:10;3.60;50.80
56729;DHT22;42612;52.232;7.560;2022-11-20T03:43:37;3.60;50.90
56729;DHT22;42612;52.232;7.560;2022-11-20T03:46:03;3.60;50.90
56729;DHT22;42612;52.232;7.560;2022-11-20T03:48:29;3.60;50.90
56729;DHT22;42612;52.232;7.560;2022-11-20T03:53:33;3.60;50.70
56729;DHT22;42612;52.232;7.560;2022-11-20T03:55:58;3.60;50.90
56729;DHT22;42612;52.232;7.560;2022-11-20T03:58:24;3.50;50.90
56729;DHT22;42612;52.232;7.560;2022-11-20T04:00:50;3.50;50.90
56729;DHT22;42612;52.232;7.560;2022-11-20T04:03:15;3.50;50.80
56729;DHT22;42612;52.232;7.560;2022-11-20T04:05:41;3.50;50.80
56729;DHT22;42612;52.232;7.560;2022-11-20T04:08:06;3.50;50.80
56729;DHT22;42612;52.232;7.560;2022-11-20T04:10:32;3.50;50.80
56729;DHT22;42612;52.232;7.560;2022-11-20T04:12:58;3.50;50.70
56729;DHT22;42612;52.232;7.560;2022-11-20T04:15:23;3.50;50.70
56729;DHT22;42612;52.232;7.560;2022-11-20T04:17:49;3.40;50.70
56729;DHT22;42612;52.232;7.560;2022-11-20T04:20:14;3.40;50.70
56729;DHT22;42612;52.232;7.560;2022-11-20T04:22:40;3.40;50.90
56729;DHT22;42612;52.232;7.560;2022-11-20T04:25:06;3.40;50.80
56729;DHT22;42612;52.232;7.560;2022-11-20T04:27:31;3.40;50.80
56729;DHT22;42612;52.232;7.560;2022-11-20T04:29:57;3.40;50.70
56729;DHT22;42612;52.232;7.560;2022-11-20T04:32:23;3.40;50.80
56729;DHT22;42612;52.232;7.560;2022-11-20T04:34:48;3.40;50.90
56729;DHT22;42612;52.232;7.560;2022-11-20T04:37:14;3.40;50.90
56729;DHT22;42612;52.232;7.560;2022-11-20T04:39:39;3.40;50.70
56729;DHT22;42612;52.232;7.560;2022-11-20T04:42:05;3.40;50.70
56729;DHT22;42612;52.232;7.560;2022-11-20T04:44:49;3.40;50.70
56729;DHT22;42612;52.232;7.560;2022-11-20T04:47:15;3.30;50.50
56729;DHT22;42612;52.232;7.560;2022-11-20T04:49:40;3.30;50.50
56729;DHT22;42612;52.232;7.560;2022-11-20T04:52:06;3.30;50.70
56729;DHT22;42612;52.232;7.560;2022-11-20T04:54:32;3.30;50.70
56729;DHT22;42612;52.232;7.560;2022-11-20T04:56:57;3.30;50.70
56729;DHT22;42612;52.232;7.560;2022-11-20T04:59:23;3.30;50.70
56729;DHT22;42612;52.232;7.560;2022-11-20T05:01:48;3.30;50.80
56729;DHT22;42612;52.232;7.560;2022-11-20T05:04:14;3.30;50.70
56729;DHT22;42612;52.232;7.560;2022-11-20T05:06:39;3.30;50.80
56729;DHT22;42612;52.232;7.560;2022-11-20T05:09:05;3.30;50.70
56729;DHT22;42612;52.232;7.560;2022-11-20T05:11:31;3.30;50.80
56729;DHT22;42612;52.232;7.560;2022-11-20T05:13:57;3.30;50.80
56729;DHT22;42612;52.232;7.560;2022-11-20T05:16:23;3.20;50.80
56729;DHT22;42612;52.232;7.560;2022-11-20T05:18:50;3.20;50.80
56729;DHT22;42612;52.232;7.560;2022-11-20T05:21:17;3.20;50.80
56729;DHT22;42612;52.232;7.560;2022-11-20T05:23:43;3.20;50.90
56729;DHT22;42612;52.232;7.560;2022-11-20T05:26:13;3.20;50.90
56729;DHT22;42612;52.232;7.560;2022-11-20T05:28:40;3.20;50.90
56729;DHT22;42612;52.232;7.560;2022-11-20T05:31:07;3.20;50.80
56729;DHT22;42612;52.232;7.560;2022-11-20T05:33:34;3.20;50.80
56729;DHT22;42612;52.232;7.560;2022-11-20T05:36:00;3.20;50.90
56729;DHT22;42612;52.232;7.560;2022-11-20T05:38:26;3.20;50.90
56729;DHT22;42612;52.232;7.560;2022-11-20T05:40:52;3.20;50.80
56729;DHT22;42612;52.232;7.560;2022-11-20T05:43:17;3.20;50.90
56729;DHT22;42612;52.232;7.560;2022-11-20T05:45:51;3.20;50.90
56729;DHT22;42612;52.232;7.560;2022-11-20T05:48:19;3.20;50.80
56729;DHT22;42612;52.232;7.560;2022-11-20T05:50:45;3.20;50.80
56729;DHT22;42612;52.232;7.560;2022-11-20T05:53:10;3.20;50.80
56729;DHT22;42612;52.232;7.560;2022-11-20T05:55:36;3.20;51.00
56729;DHT22;42612;52.232;7.560;2022-11-20T05:58:01;3.20;51.00
56729;DHT22;42612;52.232;7.560;2022-11-20T06:00:27;3.20;51.00
56729;DHT22;42612;52.232;7.560;2022-11-20T06:02:53;3.20;51.00
56729;DHT22;42612;52.232;7.560;2022-11-20T06:05:18;3.20;50.90
56729;DHT22;42612;52.232;7.560;2022-11-20T06:07:44;3.20;50.90
56729;DHT22;42612;52.232;7.560;2022-11-20T06:10:09;3.20;50.90
56729;DHT22;42612;52.232;7.560;2022-11-20T06:12:35;3.20;51.00
56729;DHT22;42612;52.232;7.560;2022-11-20T06:15:01;3.20;50.90
56729;DHT22;42612;52.232;7.560;2022-11-20T06:17:26;3.20;51.00
56729;DHT22;42612;52.232;7.560;2022-11-20T06:19:52;3.10;51.00
56729;DHT22;42612;52.232;7.560;2022-11-20T06:22:17;3.10;50.80
56729;DHT22;42612;52.232;7.560;2022-11-20T06:24:43;3.10;50.90
56729;DHT22;42612;52.232;7.560;2022-11-20T06:27:08;3.20;51.00
56729;DHT22;42612;52.232;7.560;2022-11-20T06:29:34;3.20;51.10
56729;DHT22;42612;52.232;7.560;2022-11-20T06:32:00;3.10;51.10
56729;DHT22;42612;52.232;7.560;2022-11-20T06:34:26;3.10;51.10
56729;DHT22;42612;52.232;7.560;2022-11-20T06:36:51;3.20;51.20
56729;DHT22;42612;52.232;7.560;2022-11-20T06:39:17;3.20;51.30
56729;DHT22;42612;52.232;7.560;2022-11-20T06:41:42;3.20;51.30
56729;DHT22;42612;52.232;7.560;2022-11-20T06:44:08;3.20;51.40
56729;DHT22;42612;52.232;7.560;2022-11-20T06:46:34;3.30;51.30
56729;DHT22;42612;52.232;7.560;2022-11-20T06:48:59;3.30;51.40
56729;DHT22;42612;52.232;7.560;2022-11-20T06:51:25;3.30;51.40
56729;DHT22;42612;52.232;7.560;2022-11-20T06:53:50;3.30;51.40
56729;DHT22;42612;52.232;7.560;2022-11-20T06:56:16;3.30;51.40
56729;DHT22;42612;52.232;7.560;2022-11-20T06:58:42;3.30;51.40
56729;DHT22;42612;52.232;7.560;2022-11-20T07:01:09;3.30;51.40
56729;DHT22;42612;52.232;7.560;2022-11-20T07:03:35;3.30;51.30
56729;DHT22;42612;52.232;7.560;2022-11-20T07:06:01;3.30;51.30
56729;DHT22;42612;52.232;7.560;2022-11-20T07:08:27;3.30;51.30
56729;DHT22;42612;52.232;7.560;2022-11-20T07:10:56;3.30;51.30
56729;DHT22;42612;52.232;7.560;2022-11-20T07:13:22;3.30;51.30
56729;DHT22;42612;52.232;7.560;2022-11-20T07:15:48;3.30;51.20
56729;DHT22;42612;52.232;7.560;2022-11-20T07:18:14;3.30;51.20
56729;DHT22;42612;52.232;7.560;2022-11-20T07:20:39;3.30;51.20
56729;DHT22;42612;52.232;7.560;2022-11-20T07:23:05;3.30;51.30
56729;DHT22;42612;52.232;7.560;2022-11-20T07:25:30;3.30;51.30
56729;DHT22;42612;52.232;7.560;2022-11-20T07:27:57;3.30;51.40
56729;DHT22;42612;52.232;7.560;2022-11-20T07:30:26;3.30;51.40
56729;DHT22;42612;52.232;7.560;2022-11-20T07:32:52;3.40;51.50
56729;DHT22;42612;52.232;7.560;2022-11-20T07:35:19;3.40;51.60
56729;DHT22;42612;52.232;7.560;2022-11-20T07:37:45;3.40;51.60
56729;DHT22;42612;52.232;7.560;2022-11-20T07:40:12;3.40;51.60
56729;DHT22;42612;52.232;7.560;2022-11-20T07:42:48;3.40;51.70
56729;DHT22;42612;52.232;7.560;2022-11-20T07:45:15;3.40;51.60
56729;DHT22;42612;52.232;7.560;2022-11-20T07:47:41;3.40;51.70
56729;DHT22;42612;52.232;7.560;2022-11-20T07:50:07;3.50;51.80
56729;DHT22;42612;52.232;7.560;2022-11-20T07:52:32;3.50;51.80
56729;DHT22;42612;52.232;7.560;2022-11-20T07:54:58;3.50;51.80
56729;DHT22;42612;52.232;7.560;2022-11-20T07:57:24;3.50;51.90
56729;DHT22;42612;52.232;7.560;2022-11-20T07:59:49;3.60;52.00
56729;DHT22;42612;52.232;7.560;2022-11-20T08:02:15;3.60;52.10
56729;DHT22;42612;52.232;7.560;2022-11-20T08:04:40;3.60;52.10
56729;DHT22;42612;52.232;7.560;2022-11-20T08:07:06;3.60;52.00
56729;DHT22;42612;52.232;7.560;2022-11-20T08:09:31;3.60;52.00
56729;DHT22;42612;52.232;7.560;2022-11-20T08:11:57;3.70;52.10
56729;DHT22;42612;52.232;7.560;2022-11-20T08:14:42;3.70;52.30
56729;DHT22;42612;52.232;7.560;2022-11-20T08:17:07;3.70;52.30
56729;DHT22;42612;52.232;7.560;2022-11-20T08:19:33;3.80;52.40
56729;DHT22;42612;52.232;7.560;2022-11-20T08:21:58;3.80;52.50
56729;DHT22;42612;52.232;7.560;2022-11-20T08:24:24;3.80;52.60
56729;DHT22;42612;52.232;7.560;2022-11-20T08:26:51;3.90;52.70
56729;DHT22;42612;52.232;7.560;2022-11-20T08:29:17;3.90;52.70
56729;DHT22;42612;52.232;7.560;2022-11-20T08:31:43;4.00;52.80
56729;DHT22;42612;52.232;7.560;2022-11-20T08:34:09;4.00;52.80
56729;DHT22;42612;52.232;7.560;2022-11-20T08:36:34;4.10;52.80
56729;DHT22;42612;52.232;7.560;2022-11-20T08:39:00;4.10;52.80
56729;DHT22;42612;52.232;7.560;2022-11-20T08:41:26;4.20;52.70
56729;DHT22;42612;52.232;7.560;2022-11-20T08:43:53;4.20;52.50
56729;DHT22;42612;52.232;7.560;2022-11-20T08:46:21;4.20;52.40
56729;DHT22;42612;52.232;7.560;2022-11-20T08:48:47;4.10;52.30
56729;DHT22;42612;52.232;7.560;2022-11-20T08:51:13;4.10;52.50
56729;DHT22;42612;52.232;7.560;2022-11-20T08:53:38;4.10;52.50
56729;DHT22;42612;52.232;7.560;2022-11-20T08:56:05;4.10;52.60
56729;DHT22;42612;52.232;7.560;2022-11-20T08:58:31;4.20;52.80
56729;DHT22;42612;52.232;7.560;2022-11-20T09:00:56;4.20;52.80
56729;DHT22;42612;52.232;7.560;2022-11-20T09:03:22;4.20;52.80
56729;DHT22;42612;52.232;7.560;2022-11-20T09:05:47;4.20;52.90
56729;DHT22;42612;52.232;7.560;2022-11-20T09:08:13;4.20;52.90
56729;DHT22;42612;52.232;7.560;2022-11-20T09:10:39;4.20;53.00
56729;DHT22;42612;52.232;7.560;2022-11-20T09:13:07;4.20;53.20
56729;DHT22;42612;52.232;7.560;2022-11-20T09:15:33;4.20;53.30
56729;DHT22;42612;52.232;7.560;2022-11-20T09:18:00;4.20;53.30
56729;DHT22;42612;52.232;7.560;2022-11-20T09:20:27;4.30;53.50
56729;DHT22;42612;52.232;7.560;2022-11-20T09:22:56;4.30;54.30
56729;DHT22;42612;52.232;7.560;2022-11-20T09:25:22;4.40;53.70
56729;DHT22;42612;52.232;7.560;2022-11-20T09:27:54;4.40;53.80
56729;DHT22;42612;52.232;7.560;2022-11-20T09:30:23;4.40;53.60
56729;DHT22;42612;52.232;7.560;2022-11-20T09:32:48;4.40;53.70
56729;DHT22;42612;52.232;7.560;2022-11-20T09:35:14;4.40;53.90
56729;DHT22;42612;52.232;7.560;2022-11-20T09:37:40;4.50;54.00
56729;DHT22;42612;52.232;7.560;2022-11-20T09:40:06;4.50;54.20
56729;DHT22;42612;52.232;7.560;2022-11-20T09:45:21;4.60;54.40
56729;DHT22;42612;52.232;7.560;2022-11-20T09:47:54;4.60;54.40
56729;DHT22;42612;52.232;7.560;2022-11-20T09:50:30;4.70;54.50
56729;DHT22;42612;52.232;7.560;2022-11-20T09:53:13;4.70;54.50
56729;DHT22;42612;52.232;7.560;2022-11-20T09:55:45;4.80;54.70
56729;DHT22;42612;52.232;7.560;2022-11-20T09:58:24;4.80;54.70
56729;DHT22;42612;52.232;7.560;2022-11-20T10:00:56;4.90;54.60
56729;DHT22;42612;52.232;7.560;2022-11-20T10:03:27;4.90;54.70
56729;DHT22;42612;52.232;7.560;2022-11-20T10:06:16;5.00;54.70
56729;DHT22;42612;52.232;7.560;2022-11-20T10:08:51;5.10;54.80
56729;DHT22;42612;52.232;7.560;2022-11-20T10:11:35;5.10;54.70
56729;DHT22;42612;52.232;7.560;2022-11-20T10:16:53;5.20;54.70
56729;DHT22;42612;52.232;7.560;2022-11-20T10:19:47;5.30;54.80
56729;DHT22;42612;52.232;7.560;2022-11-20T10:25:00;5.30;54.70
56729;DHT22;42612;52.232;7.560;2022-11-20T10:30:18;5.40;54.90
56729;DHT22;42612;52.232;7.560;2022-11-20T10:32:48;5.50;54.90
56729;DHT22;42612;52.232;7.560;2022-11-20T10:35:38;5.50;54.90
56729;DHT22;42612;52.232;7.560;2022-11-20T10:38:18;5.50;54.80
56729;DHT22;42612;52.232;7.560;2022-11-20T10:40:57;5.50;54.80
56729;DHT22;42612;52.232;7.560;2022-11-20T10:43:44;5.60;54.90
56729;DHT22;42612;52.232;7.560;2022-11-20T10:46:15;5.60;54.80
56729;DHT22;42612;52.232;7.560;2022-11-20T10:48:43;5.60;54.70
56729;DHT22;42612;52.232;7.560;2022-11-20T10:56:48;5.70;55.00
56729;DHT22;42612;52.232;7.560;2022-11-20T11:01:51;5.70;54.90
56729;DHT22;42612;52.232;7.560;2022-11-20T11:07:09;5.70;54.90
56729;DHT22;42612;52.232;7.560;2022-11-20T11:09:41;5.80;55.00
56729;DHT22;42612;52.232;7.560;2022-11-20T11:12:09;5.80;55.10
56729;DHT22;42612;52.232;7.560;2022-11-20T11:14:46;5.80;55.00
56729;DHT22;42612;52.232;7.560;2022-11-20T11:17:20;5.90;55.10
56729;DHT22;42612;52.232;7.560;2022-11-20T11:22:28;5.90;55.10
56729;DHT22;42612;52.232;7.560;2022-11-20T11:24:55;5.90;55.00
56729;DHT22;42612;52.232;7.560;2022-11-20T11:27:21;6.00;55.10
56729;DHT22;42612;52.232;7.560;2022-11-20T11:29:46;6.00;55.10
56729;DHT22;42612;52.232;7.560;2022-11-20T11:32:13;6.10;55.10
56729;DHT22;42612;52.232;7.560;2022-11-20T11:35:03;6.10;55.10
56729;DHT22;42612;52.232;7.560;2022-11-20T11:37:37;6.20;55.10
56729;DHT22;42612;52.232;7.560;2022-11-20T11:40:04;6.20;55.00
56729;DHT22;42612;52.232;7.560;2022-11-20T11:42:30;6.20;55.00
56729;DHT22;42612;52.232;7.560;2022-11-20T11:44:57;6.20;55.00
56729;DHT22;42612;52.232;7.560;2022-11-20T11:47:30;6.30;55.10
56729;DHT22;42612;52.232;7.560;2022-11-20T11:50:15;6.30;55.10
56729;DHT22;42612;52.232;7.560;2022-11-20T12:00:54;6.40;55.00
56729;DHT22;42612;52.232;7.560;2022-11-20T12:03:40;6.40;55.10
56729;DHT22;42612;52.232;7.560;2022-11-20T12:06:11;6.30;55.10
56729;DHT22;42612;52.232;7.560;2022-11-20T12:16:57;6.40;55.30
56729;DHT22;42612;52.232;7.560;2022-11-20T12:19:23;6.40;55.40
56729;DHT22;42612;52.232;7.560;2022-11-20T12:21:53;6.50;55.40
56729;DHT22;42612;52.232;7.560;2022-11-20T12:25:14;6.50;55.60
56729;DHT22;42612;52.232;7.560;2022-11-20T12:30:21;6.50;55.60
56729;DHT22;42612;52.232;7.560;2022-11-20T12:49:54;6.80;55.90
56729;DHT22;42612;52.232;7.560;2022-11-20T12:52:30;6.90;56.00
56729;DHT22;42612;52.232;7.560;2022-11-20T12:55:14;6.90;56.00
56729;DHT22;42612;52.232;7.560;2022-11-20T13:00:23;7.10;56.20
56729;DHT22;42612;52.232;7.560;2022-11-20T13:05:40;7.20;56.30
56729;DHT22;42612;52.232;7.560;2022-11-20T13:08:27;7.30;56.40
56729;DHT22;42612;52.232;7.560;2022-11-20T13:12:01;7.40;56.30
56729;DHT22;42612;52.232;7.560;2022-11-20T13:16:57;7.50;56.10
56729;DHT22;42612;52.232;7.560;2022-11-20T13:19:25;7.60;56.00
56729;DHT22;42612;52.232;7.560;2022-11-20T13:21:52;7.60;55.90
56729;DHT22;42612;52.232;7.560;2022-11-20T13:24:22;7.70;55.90
56729;DHT22;42612;52.232;7.560;2022-11-20T13:26:59;7.70;55.90
56729;DHT22;42612;52.232;7.560;2022-11-20T13:29:35;7.70;55.90
56729;DHT22;42612;52.232;7.560;2022-11-20T13:32:14;7.70;55.80
56729;DHT22;42612;52.232;7.560;2022-11-20T13:35:03;7.80;55.70
56729;DHT22;42612;52.232;7.560;2022-11-20T13:37:33;7.80;55.70
56729;DHT22;42612;52.232;7.560;2022-11-20T13:43:01;7.80;55.60
56729;DHT22;42612;52.232;7.560;2022-11-20T13:45:30;7.80;55.50
56729;DHT22;42612;52.232;7.560;2022-11-20T13:47:57;7.80;55.50
56729;DHT22;42612;52.232;7.560;2022-11-20T13:50:37;7.80;55.50
56729;DHT22;42612;52.232;7.560;2022-11-20T13:56:10;7.90;55.50
56729;DHT22;42612;52.232;7.560;2022-11-20T14:01:50;7.90;55.40
56729;DHT22;42612;52.232;7.560;2022-11-20T14:04:18;7.90;55.40
56729;DHT22;42612;52.232;7.560;2022-11-20T14:06:48;7.90;55.30
56729;DHT22;42612;52.232;7.560;2022-11-20T14:11:53;7.90;55.30
56729;DHT22;42612;52.232;7.560;2022-11-20T14:14:20;7.80;55.80
56729;DHT22;42612;52.232;7.560;2022-11-20T14:16:48;7.80;55.20
56729;DHT22;42612;52.232;7.560;2022-11-20T14:19:22;7.80;55.20
56729;DHT22;42612;52.232;7.560;2022-11-20T14:22:10;7.80;55.20
56729;DHT22;42612;52.232;7.560;2022-11-20T14:24:46;7.80;55.20
56729;DHT22;42612;52.232;7.560;2022-11-20T14:27:19;7.70;55.10
56729;DHT22;42612;52.232;7.560;2022-11-20T14:29:46;7.70;55.10
56729;DHT22;42612;52.232;7.560;2022-11-20T14:32:20;7.70;55.10
56729;DHT22;42612;52.232;7.560;2022-11-20T14:34:48;7.60;55.70
56729;DHT22;42612;52.232;7.560;2022-11-20T14:37:19;7.60;55.00
56729;DHT22;42612;52.232;7.560;2022-11-20T14:39:54;7.60;55.00
56729;DHT22;42612;52.232;7.560;2022-11-20T14:42:22;7.60;55.00
56729;DHT22;42612;52.232;7.560;2022-11-20T14:44:49;7.60;55.10
56729;DHT22;42612;52.232;7.560;2022-11-20T14:47:18;7.50;55.10
56729;DHT22;42612;52.232;7.560;2022-11-20T14:49:46;7.50;55.10
56729;DHT22;42612;52.232;7.560;2022-11-20T14:52:13;7.50;55.10
56729;DHT22;42612;52.232;7.560;2022-11-20T14:57:20;7.40;55.20
56729;DHT22;42612;52.232;7.560;2022-11-20T14:59:47;7.40;55.30
56729;DHT22;42612;52.232;7.560;2022-11-20T15:02:13;7.40;55.30
56729;DHT22;42612;52.232;7.560;2022-11-20T15:04:45;7.40;55.30
56729;DHT22;42612;52.232;7.560;2022-11-20T15:07:22;7.40;55.40
56729;DHT22;42612;52.232;7.560;2022-11-20T15:09:58;7.40;55.30
56729;DHT22;42612;52.232;7.560;2022-11-20T15:12:32;7.40;55.30
56729;DHT22;42612;52.232;7.560;2022-11-20T15:14:59;7.40;55.40
56729;DHT22;42612;52.232;7.560;2022-11-20T15:17:26;7.30;55.30
56729;DHT22;42612;52.232;7.560;2022-11-20T15:19:52;7.30;55.40
56729;DHT22;42612;52.232;7.560;2022-11-20T15:22:18;7.40;56.10
56729;DHT22;42612;52.232;7.560;2022-11-20T15:24:44;7.40;55.50
56729;DHT22;42612;52.232;7.560;2022-11-20T15:27:11;7.40;55.50
56729;DHT22;42612;52.232;7.560;2022-11-20T15:29:37;7.40;55.50
56729;DHT22;42612;52.232;7.560;2022-11-20T15:32:03;7.40;55.50
56729;DHT22;42612;52.232;7.560;2022-11-20T15:34:28;7.40;55.60
56729;DHT22;42612;52.232;7.560;2022-11-20T15:36:54;7.40;55.60
56729;DHT22;42612;52.232;7.560;2022-11-20T15:39:20;7.40;55.50
56729;DHT22;42612;52.232;7.560;2022-11-20T15:41:46;7.40;55.50
56729;DHT22;42612;52.232;7.560;2022-11-20T15:44:12;7.40;55.50
56729;DHT22;42612;52.232;7.560;2022-11-20T15:46:38;7.40;55.50
56729;DHT22;42612;52.232;7.560;2022-11-20T15:49:08;7.40;55.50
56729;DHT22;42612;52.232;7.560;2022-11-20T15:51:37;7.40;55.50
56729;DHT22;42612;52.232;7.560;2022-11-20T15:54:17;7.40;55.50
56729;DHT22;42612;52.232;7.560;2022-11-20T15:56:47;7.40;55.50
56729;DHT22;42612;52.232;7.560;2022-11-20T15:59:14;7.40;55.50
56729;DHT22;42612;52.232;7.560;2022-11-20T16:01:42;7.40;55.50
56729;DHT22;42612;52.232;7.560;2022-11-20T16:04:11;7.40;55.50
56729;DHT22;42612;52.232;7.560;2022-11-20T16:06:38;7.40;55.50
56729;DHT22;42612;52.232;7.560;2022-11-20T16:09:03;7.40;55.50
56729;DHT22;42612;52.232;7.560;2022-11-20T16:11:29;7.40;55.50
56729;DHT22;42612;52.232;7.560;2022-11-20T16:13:54;7.40;55.50
56729;DHT22;42612;52.232;7.560;2022-11-20T16:16:39;7.40;55.40
56729;DHT22;42612;52.232;7.560;2022-11-20T16:19:06;7.40;55.50
56729;DHT22;42612;52.232;7.560;2022-11-20T16:21:31;7.40;55.40
56729;DHT22;42612;52.232;7.560;2022-11-20T16:23:58;7.50;55.40
56729;DHT22;42612;52.232;7.560;2022-11-20T16:26:24;7.50;55.40
56729;DHT22;42612;52.232;7.560;2022-11-20T16:28:49;7.50;55.50
56729;DHT22;42612;52.232;7.560;2022-11-20T16:31:16;7.50;55.50
56729;DHT22;42612;52.232;7.560;2022-11-20T16:33:42;7.50;55.40
56729;DHT22;42612;52.232;7.560;2022-11-20T16:36:15;7.50;55.40
56729;DHT22;42612;52.232;7.560;2022-11-20T16:38:40;7.50;55.40
56729;DHT22;42612;52.232;7.560;2022-11-20T16:41:06;7.60;55.40
56729;DHT22;42612;52.232;7.560;2022-11-20T16:43:54;7.50;55.30
56729;DHT22;42612;52.232;7.560;2022-11-20T16:46:24;7.60;55.40
56729;DHT22;42612;52.232;7.560;2022-11-20T16:48:52;7.60;55.40
56729;DHT22;42612;52.232;7.560;2022-11-20T16:51:19;7.60;55.40
56729;DHT22;42612;52.232;7.560;2022-11-20T16:53:45;7.60;55.30
56729;DHT22;42612;52.232;7.560;2022-11-20T16:56:14;7.60;55.30
56729;DHT22;42612;52.232;7.560;2022-11-20T16:58:42;7.60;55.30
56729;DHT22;42612;52.232;7.560;2022-11-20T17:01:08;7.60;55.30
56729;DHT22;42612;52.232;7.560;2022-11-20T17:03:36;7.60;55.30
56729;DHT22;42612;52.232;7.560;2022-11-20T17:06:15;7.60;55.20
56729;DHT22;42612;52.232;7.560;2022-11-20T17:08:43;7.60;55.20
56729;DHT22;42612;52.232;7.560;2022-11-20T17:11:10;7.70;55.30
56729;DHT22;42612;52.232;7.560;2022-11-20T17:13:37;7.60;55.10
56729;DHT22;42612;52.232;7.560;2022-11-20T17:16:04;7.70;55.10
56729;DHT22;42612;52.232;7.560;2022-11-20T17:18:32;7.70;55.10
56729;DHT22;42612;52.232;7.560;2022-11-20T17:20:58;7.70;55.10
56729;DHT22;42612;52.232;7.560;2022-11-20T17:23:27;7.70;55.10
56729;DHT22;42612;52.232;7.560;2022-11-20T17:26:00;7.70;55.10
56729;DHT22;42612;52.232;7.560;2022-11-20T17:28:32;7.70;55.10